Time;durP1;ratioP1;P1;durP2;ratioP2;P2;SDS_P1;SDS_P2;PMS_P1;PMS_P2;Temp;Humidity;BMP_temperature;BMP_pressure;BME280_temperature;BME280_humidity;BME280_pressure;Samples;Min_cycle;Max_cycle;Signal;HPM_P1;HPM_P2
2022/03/25 00:02:06;;;;;;;108.13;53.30;;;;;;;;;;5068039;28;20631;-88
2022/03/25 00:04:33;;;;;;;111.57;53.50;;;;;;;;;;5068400;28;20196;-89
2022/03/25 00:07:00;;;;;;;106.93;53.40;;;;;;;;;;5067975;28;20204;-89
2022/03/25 00:09:26;;;;;;;109.18;54.75;;;;;;;;;;5066779;28;20281;-88
2022/03/25 00:11:53;;;;;;;111.47;54.17;;;;;;;;;;5066619;28;20235;-88
2022/03/25 00:14:19;;;;;;;116.15;54.88;;;;;;;;;;5067457;28;20212;-88
2022/03/25 00:16:47;;;;;;;110.55;54.88;;;;;;;;;;5068299;28;20214;-88
2022/03/25 00:19:14;;;;;;;107.38;54.58;;;;;;;;;;5063461;28;20203;-88
2022/03/25 00:21:40;;;;;;;105.07;51.83;;;;;;;;;;5068698;28;20222;-88
2022/03/25 00:24:08;;;;;;;108.88;54.90;;;;;;;;;;5067355;28;20253;-88
2022/03/25 00:26:35;;;;;;;107.68;52.25;;;;;;;;;;5065951;28;20196;-88
2022/03/25 00:29:01;;;;;;;112.18;54.55;;;;;;;;;;5066433;28;20206;-88
2022/03/25 00:31:28;;;;;;;116.10;54.70;;;;;;;;;;5066488;28;20203;-89
2022/03/25 00:33:56;;;;;;;116.75;53.17;;;;;;;;;;5066249;28;20675;-89
2022/03/25 00:36:23;;;;;;;112.22;54.47;;;;;;;;;;5064972;28;20203;-89
2022/03/25 00:38:50;;;;;;;111.45;53.67;;;;;;;;;;5067611;28;20227;-89
2022/03/25 00:41:16;;;;;;;108.65;53.10;;;;;;;;;;5066318;28;20210;-88
2022/03/25 00:43:43;;;;;;;105.20;51.70;;;;;;;;;;5067584;28;20196;-88
2022/03/25 00:46:11;;;;;;;108.00;52.78;;;;;;;;;;5067784;28;20200;-88
2022/03/25 00:48:37;;;;;;;112.05;53.67;;;;;;;;;;5067663;28;20196;-88
2022/03/25 00:51:05;;;;;;;109.95;53.55;;;;;;;;;;5060803;28;20232;-88
2022/03/25 00:53:32;;;;;;;110.43;52.17;;;;;;;;;;5064238;28;20219;-87
2022/03/25 00:56:00;;;;;;;111.88;52.78;;;;;;;;;;5064450;28;20220;-88
2022/03/25 00:58:26;;;;;;;101.13;50.60;;;;;;;;;;5064686;28;20659;-88
2022/03/25 01:00:53;;;;;;;103.35;51.30;;;;;;;;;;5065321;28;20200;-88
2022/03/25 01:03:20;;;;;;;103.57;52.15;;;;;;;;;;5064925;28;20230;-87
2022/03/25 01:05:47;;;;;;;107.38;51.92;;;;;;;;;;5062884;28;20203;-88
2022/03/25 01:08:15;;;;;;;104.47;52.50;;;;;;;;;;5061728;28;20661;-88
2022/03/25 01:10:41;;;;;;;107.00;51.17;;;;;;;;;;5058024;28;20217;-88
2022/03/25 01:13:08;;;;;;;104.05;51.83;;;;;;;;;;5044419;28;20221;-88
2022/03/25 01:15:35;;;;;;;109.10;50.85;;;;;;;;;;5052199;28;20192;-88
2022/03/25 01:18:01;;;;;;;102.13;50.78;;;;;;;;;;5064721;28;20210;-88
2022/03/25 01:20:29;;;;;;;100.53;50.80;;;;;;;;;;5064244;28;20197;-88
2022/03/25 01:22:55;;;;;;;105.32;53.30;;;;;;;;;;5064066;28;20207;-88
2022/03/25 01:25:24;;;;;;;102.85;51.28;;;;;;;;;;5061827;28;20218;-88
2022/03/25 01:27:50;;;;;;;101.35;51.08;;;;;;;;;;5064204;28;20204;-88
2022/03/25 01:30:17;;;;;;;105.00;51.60;;;;;;;;;;5064271;28;20216;-88
2022/03/25 01:32:44;;;;;;;101.53;51.03;;;;;;;;;;5064171;28;20204;-88
2022/03/25 01:35:11;;;;;;;110.63;50.83;;;;;;;;;;5064161;28;20219;-87
2022/03/25 01:37:38;;;;;;;107.93;53.30;;;;;;;;;;5063908;28;20207;-88
2022/03/25 01:40:09;;;;;;;111.38;52.83;;;;;;;;;;5061451;28;20200;-88
2022/03/25 01:42:39;;;;;;;105.13;52.30;;;;;;;;;;5063720;28;20215;-89
2022/03/25 01:45:06;;;;;;;99.97;50.85;;;;;;;;;;5064456;28;20200;-88
2022/03/25 01:47:34;;;;;;;113.75;52.90;;;;;;;;;;5064220;28;20195;-88
2022/03/25 01:50:01;;;;;;;103.35;50.97;;;;;;;;;;5063456;28;21014;-89
2022/03/25 01:52:28;;;;;;;106.20;51.65;;;;;;;;;;5064167;28;20199;-87
2022/03/25 01:54:55;;;;;;;105.53;51.30;;;;;;;;;;5064084;28;20231;-88
2022/03/25 01:57:24;;;;;;;101.38;51.08;;;;;;;;;;5059429;28;20281;-87
2022/03/25 01:59:54;;;;;;;104.85;52.15;;;;;;;;;;5063351;28;20235;-87
2022/03/25 02:02:20;;;;;;;103.53;52.65;;;;;;;;;;5062924;28;20203;-88
2022/03/25 02:04:47;;;;;;;103.85;51.60;;;;;;;;;;5064408;28;20234;-88
2022/03/25 02:07:14;;;;;;;108.07;52.40;;;;;;;;;;5064101;28;20192;-88
2022/03/25 02:09:40;;;;;;;104.28;51.38;;;;;;;;;;5063871;28;20204;-88
2022/03/25 02:12:08;;;;;;;100.05;50.35;;;;;;;;;;5063834;28;20200;-88
2022/03/25 02:14:34;;;;;;;104.25;51.72;;;;;;;;;;5058624;28;20615;-88
2022/03/25 02:17:02;;;;;;;105.03;51.80;;;;;;;;;;5054873;28;20204;-89
2022/03/25 02:19:29;;;;;;;109.70;53.55;;;;;;;;;;5042943;28;20208;-89
2022/03/25 02:21:57;;;;;;;113.20;55.05;;;;;;;;;;5061385;28;20204;-88
2022/03/25 02:24:23;;;;;;;109.57;53.05;;;;;;;;;;5063422;28;20265;-88
2022/03/25 02:26:50;;;;;;;106.47;49.55;;;;;;;;;;5063868;28;20739;-88
2022/03/25 02:29:16;;;;;;;108.45;54.00;;;;;;;;;;5061252;28;20267;-89
2022/03/25 02:31:43;;;;;;;103.70;51.85;;;;;;;;;;5061553;28;20228;-88
2022/03/25 02:34:10;;;;;;;101.75;50.97;;;;;;;;;;5063444;28;20257;-88
2022/03/25 02:36:37;;;;;;;104.80;51.40;;;;;;;;;;5057021;28;20200;-88
2022/03/25 02:39:05;;;;;;;112.07;54.00;;;;;;;;;;5061680;28;20282;-88
2022/03/25 02:41:31;;;;;;;107.15;53.80;;;;;;;;;;5060499;28;20208;-88
2022/03/25 02:43:59;;;;;;;102.72;51.70;;;;;;;;;;5062258;28;20196;-88
2022/03/25 02:46:25;;;;;;;103.20;52.33;;;;;;;;;;5062483;28;20204;-88
2022/03/25 02:48:52;;;;;;;107.65;53.35;;;;;;;;;;5058479;28;20230;-87
2022/03/25 02:51:18;;;;;;;115.65;51.92;;;;;;;;;;5062214;28;20223;-87
2022/03/25 02:53:45;;;;;;;107.25;50.78;;;;;;;;;;5062466;28;20196;-87
2022/03/25 02:56:13;;;;;;;109.63;53.90;;;;;;;;;;5062048;28;20200;-88
2022/03/25 02:58:40;;;;;;;110.60;52.80;;;;;;;;;;5062008;28;20254;-88
2022/03/25 03:01:06;;;;;;;107.85;51.65;;;;;;;;;;5068206;28;20191;-88
2022/03/25 03:03:33;;;;;;;104.05;50.47;;;;;;;;;;5077154;28;20255;-88
2022/03/25 03:05:59;;;;;;;105.03;52.03;;;;;;;;;;5062509;28;20234;-88
2022/03/25 03:08:26;;;;;;;112.22;51.83;;;;;;;;;;5062486;28;20219;-88
2022/03/25 03:10:53;;;;;;;105.57;51.10;;;;;;;;;;5060445;28;20230;-88
2022/03/25 03:13:21;;;;;;;103.55;51.60;;;;;;;;;;5060296;28;20196;-88
2022/03/25 03:15:48;;;;;;;111.80;53.72;;;;;;;;;;5060476;28;20196;-88
2022/03/25 03:18:15;;;;;;;121.88;52.95;;;;;;;;;;5061120;28;20267;-88
2022/03/25 03:20:42;;;;;;;107.03;52.35;;;;;;;;;;5059358;28;20294;-88
2022/03/25 03:23:08;;;;;;;116.07;52.80;;;;;;;;;;5061375;28;20200;-88
2022/03/25 03:25:35;;;;;;;105.93;53.50;;;;;;;;;;5060043;28;20264;-88
2022/03/25 03:28:02;;;;;;;106.50;52.15;;;;;;;;;;5040643;28;20204;-88
2022/03/25 03:30:30;;;;;;;116.07;53.50;;;;;;;;;;5041079;28;20650;-88
2022/03/25 03:32:57;;;;;;;112.15;52.22;;;;;;;;;;5061047;28;20219;-88
2022/03/25 03:35:25;;;;;;;108.72;52.45;;;;;;;;;;5062456;28;20848;-88
2022/03/25 03:37:51;;;;;;;100.95;50.53;;;;;;;;;;5060536;28;20646;-88
2022/03/25 03:40:18;;;;;;;108.30;53.35;;;;;;;;;;5061487;28;20229;-88
2022/03/25 03:42:45;;;;;;;105.93;52.47;;;;;;;;;;5078352;28;20199;-88
2022/03/25 03:45:12;;;;;;;108.63;52.00;;;;;;;;;;5081886;28;20229;-88
2022/03/25 03:47:40;;;;;;;104.65;51.50;;;;;;;;;;5081275;28;20191;-88
2022/03/25 03:50:08;;;;;;;112.07;52.15;;;;;;;;;;5081413;28;20267;-87
2022/03/25 03:52:35;;;;;;;109.03;53.35;;;;;;;;;;5080655;28;20202;-88
2022/03/25 03:55:02;;;;;;;105.35;51.85;;;;;;;;;;5069405;28;20219;-88
2022/03/25 03:57:28;;;;;;;111.93;53.35;;;;;;;;;;5075728;28;20223;-88
2022/03/25 03:59:55;;;;;;;110.03;52.60;;;;;;;;;;5082041;28;20195;-88
2022/03/25 04:02:21;;;;;;;107.95;51.55;;;;;;;;;;5081685;28;20267;-88
2022/03/25 04:04:49;;;;;;;108.25;51.90;;;;;;;;;;5082396;28;20215;-89
2022/03/25 04:07:16;;;;;;;108.88;50.92;;;;;;;;;;5081941;28;20641;-89
2022/03/25 04:09:42;;;;;;;107.45;51.13;;;;;;;;;;5082731;28;20199;-89
2022/03/25 04:12:09;;;;;;;110.25;53.33;;;;;;;;;;5061805;28;20259;-89
2022/03/25 04:14:36;;;;;;;109.75;52.70;;;;;;;;;;5062493;28;20238;-88
2022/03/25 04:17:03;;;;;;;110.93;54.40;;;;;;;;;;5062128;28;20249;-88
2022/03/25 04:19:29;;;;;;;112.32;53.83;;;;;;;;;;5061166;28;20204;-88
2022/03/25 04:21:57;;;;;;;123.72;55.78;;;;;;;;;;5059410;28;20203;-88
2022/03/25 04:24:24;;;;;;;107.25;51.75;;;;;;;;;;5061476;28;20196;-88
2022/03/25 04:26:50;;;;;;;105.43;52.53;;;;;;;;;;5065027;28;20226;-88
2022/03/25 04:29:18;;;;;;;111.28;53.22;;;;;;;;;;5062534;28;20200;-89
2022/03/25 04:31:45;;;;;;;107.88;52.20;;;;;;;;;;5061643;28;20735;-89
2022/03/25 04:34:11;;;;;;;111.95;54.28;;;;;;;;;;5063738;28;20196;-89
2022/03/25 04:36:38;;;;;;;114.25;54.95;;;;;;;;;;5063644;28;20242;-88
2022/03/25 04:39:05;;;;;;;113.45;53.28;;;;;;;;;;5063012;28;20203;-89
2022/03/25 04:41:32;;;;;;;112.28;55.60;;;;;;;;;;5062756;28;20192;-89
2022/03/25 04:43:58;;;;;;;111.15;53.42;;;;;;;;;;5064064;28;20199;-90
2022/03/25 04:46:25;;;;;;;109.60;52.90;;;;;;;;;;5062728;28;20207;-89
2022/03/25 04:48:51;;;;;;;112.00;54.35;;;;;;;;;;5065170;28;20200;-89
2022/03/25 04:51:18;;;;;;;117.35;54.28;;;;;;;;;;5063531;28;20246;-89
2022/03/25 04:53:45;;;;;;;114.13;55.00;;;;;;;;;;5064337;28;20656;-88
2022/03/25 04:56:13;;;;;;;116.43;57.13;;;;;;;;;;5064567;28;20208;-89
2022/03/25 04:58:39;;;;;;;110.65;55.15;;;;;;;;;;5044884;28;20232;-89
2022/03/25 05:01:06;;;;;;;113.65;53.90;;;;;;;;;;5044734;28;20208;-88
2022/03/25 05:03:32;;;;;;;116.00;54.00;;;;;;;;;;5061682;28;20193;-89
2022/03/25 05:05:58;;;;;;;105.80;53.50;;;;;;;;;;5065265;28;20254;-89
2022/03/25 05:08:25;;;;;;;107.82;52.88;;;;;;;;;;5065018;28;20234;-89
2022/03/25 05:10:52;;;;;;;120.63;54.63;;;;;;;;;;5063834;28;20266;-89
2022/03/25 05:13:20;;;;;;;107.47;52.35;;;;;;;;;;5063885;28;20203;-89
2022/03/25 05:15:46;;;;;;;113.28;54.30;;;;;;;;;;5064771;28;20222;-89
2022/03/25 05:18:14;;;;;;;110.65;53.70;;;;;;;;;;5064596;28;20192;-89
2022/03/25 05:20:40;;;;;;;117.18;56.10;;;;;;;;;;5061000;28;20192;-89
2022/03/25 05:23:08;;;;;;;119.70;55.90;;;;;;;;;;5064091;28;20548;-89
2022/03/25 05:25:35;;;;;;;107.40;53.20;;;;;;;;;;5064478;28;20279;-89
2022/03/25 05:28:01;;;;;;;128.85;55.13;;;;;;;;;;5064212;28;20200;-89
2022/03/25 05:30:31;;;;;;;116.95;56.38;;;;;;;;;;5064458;28;20200;-89
2022/03/25 05:32:58;;;;;;;114.00;56.60;;;;;;;;;;5064005;28;20282;-90
2022/03/25 05:35:25;;;;;;;115.22;53.80;;;;;;;;;;5064415;28;20207;-89
2022/03/25 05:37:52;;;;;;;113.32;53.97;;;;;;;;;;5061603;28;20637;-88
2022/03/25 05:40:20;;;;;;;118.18;56.80;;;;;;;;;;5062693;28;20196;-89
2022/03/25 05:42:46;;;;;;;115.97;56.20;;;;;;;;;;5073236;28;20201;-89
2022/03/25 05:45:13;;;;;;;113.82;54.25;;;;;;;;;;5084195;28;20234;-89
2022/03/25 05:47:41;;;;;;;111.65;54.08;;;;;;;;;;5083292;28;20222;-89
2022/03/25 05:50:09;;;;;;;121.82;55.40;;;;;;;;;;5064022;28;20205;-89
2022/03/25 05:52:35;;;;;;;119.47;56.80;;;;;;;;;;5050591;28;20220;-88
2022/03/25 05:55:03;;;;;;;115.35;57.75;;;;;;;;;;5059161;28;20200;-92
2022/03/25 05:57:29;;;;;;;119.57;56.30;;;;;;;;;;5061484;28;20216;-90
2022/03/25 05:59:57;;;;;;;116.78;56.03;;;;;;;;;;5063833;28;20258;-89
2022/03/25 06:02:24;;;;;;;114.25;57.08;;;;;;;;;;5064481;28;20188;-89
2022/03/25 06:04:52;;;;;;;115.10;58.10;;;;;;;;;;5063999;28;20200;-89
2022/03/25 06:07:18;;;;;;;133.38;61.55;;;;;;;;;;5063252;28;20262;-91
2022/03/25 06:09:44;;;;;;;129.23;63.78;;;;;;;;;;5062950;28;20200;-90
2022/03/25 06:12:11;;;;;;;128.10;62.72;;;;;;;;;;5059831;28;20266;-90
2022/03/25 06:14:38;;;;;;;122.63;59.42;;;;;;;;;;5062536;28;20204;-91
2022/03/25 06:17:05;;;;;;;129.90;60.92;;;;;;;;;;5061821;28;20200;-90
2022/03/25 06:19:32;;;;;;;123.57;61.00;;;;;;;;;;5057481;28;20204;-91
2022/03/25 06:21:59;;;;;;;132.23;61.42;;;;;;;;;;5062851;28;20219;-89
2022/03/25 06:24:26;;;;;;;119.25;58.60;;;;;;;;;;5063459;28;20230;-92
2022/03/25 06:26:53;;;;;;;125.75;61.97;;;;;;;;;;5062260;28;20199;-90
2022/03/25 06:29:19;;;;;;;135.85;62.30;;;;;;;;;;5061726;28;20250;-89
2022/03/25 06:31:46;;;;;;;122.90;60.60;;;;;;;;;;5055799;28;20291;-90
2022/03/25 06:34:12;;;;;;;121.77;60.70;;;;;;;;;;5062179;28;20443;-92
2022/03/25 06:36:39;;;;;;;127.77;61.63;;;;;;;;;;5052110;28;20474;-90
2022/03/25 06:39:07;;;;;;;125.97;62.00;;;;;;;;;;5048862;28;20451;-91
2022/03/25 06:41:33;;;;;;;124.67;62.07;;;;;;;;;;5050004;28;20489;-89
2022/03/25 06:44:01;;;;;;;122.13;60.60;;;;;;;;;;5060064;28;20472;-89
2022/03/25 06:46:27;;;;;;;126.53;60.17;;;;;;;;;;5062829;28;20466;-89
2022/03/25 06:48:54;;;;;;;126.57;62.17;;;;;;;;;;5061761;28;20473;-90
2022/03/25 06:51:21;;;;;;;126.70;61.43;;;;;;;;;;5061520;28;20489;-90
2022/03/25 06:53:47;;;;;;;125.47;63.37;;;;;;;;;;5056867;28;20439;-89
2022/03/25 06:56:16;;;;;;;154.40;65.80;;;;;;;;;;5054216;28;20469;-91
2022/03/25 06:58:42;;;;;;;145.43;66.70;;;;;;;;;;5062094;28;20463;-90
2022/03/25 07:01:09;;;;;;;142.00;68.93;;;;;;;;;;5060337;28;20458;-89
2022/03/25 07:03:36;;;;;;;134.87;65.47;;;;;;;;;;5060815;28;20443;-90
2022/03/25 07:06:02;;;;;;;134.07;64.90;;;;;;;;;;5061788;28;20473;-89
2022/03/25 07:08:29;;;;;;;136.60;65.60;;;;;;;;;;5059991;28;20443;-88
2022/03/25 07:10:59;;;;;;;138.03;62.70;;;;;;;;;;5058956;28;20486;-88
2022/03/25 07:13:27;;;;;;;136.97;66.50;;;;;;;;;;5067352;28;20461;-90
2022/03/25 07:15:53;;;;;;;131.53;61.03;;;;;;;;;;5059380;28;20439;-91
2022/03/25 07:18:20;;;;;;;124.33;61.67;;;;;;;;;;5056290;28;20552;-88
2022/03/25 07:20:46;;;;;;;140.73;62.97;;;;;;;;;;5061501;28;20438;-88
2022/03/25 07:23:13;;;;;;;127.60;61.80;;;;;;;;;;5066278;28;20538;-88
2022/03/25 07:25:39;;;;;;;129.47;66.07;;;;;;;;;;5058777;28;20450;-89
2022/03/25 07:28:06;;;;;;;131.97;63.63;;;;;;;;;;5060008;28;20469;-89
2022/03/25 07:30:34;;;;;;;127.57;62.40;;;;;;;;;;5054221;28;20485;-90
2022/03/25 07:33:00;;;;;;;128.90;64.77;;;;;;;;;;5067194;28;20497;-90
2022/03/25 07:35:27;;;;;;;126.77;61.60;;;;;;;;;;5080372;28;20445;-90
2022/03/25 07:37:54;;;;;;;135.37;64.00;;;;;;;;;;5046988;28;20443;-90
2022/03/25 07:40:22;;;;;;;132.37;64.37;;;;;;;;;;5061471;28;20447;-89
2022/03/25 07:42:48;;;;;;;136.17;65.43;;;;;;;;;;5061488;28;20946;-93
2022/03/25 07:45:15;;;;;;;129.50;65.37;;;;;;;;;;5061267;28;20512;-90
2022/03/25 07:47:44;;;;;;;127.80;64.20;;;;;;;;;;5063765;28;20857;-90
2022/03/25 07:50:11;;;;;;;129.83;64.67;;;;;;;;;;5061170;28;20494;-90
2022/03/25 07:52:37;;;;;;;130.50;65.80;;;;;;;;;;5059343;28;20516;-88
2022/03/25 07:55:04;;;;;;;132.90;66.10;;;;;;;;;;5062563;28;20558;-91
2022/03/25 07:57:31;;;;;;;136.23;66.80;;;;;;;;;;5060987;28;20505;-89
2022/03/25 07:59:58;;;;;;;134.60;67.00;;;;;;;;;;5063029;28;20454;-89
2022/03/25 08:02:25;;;;;;;135.97;71.70;;;;;;;;;;5065308;28;20526;-88
2022/03/25 08:04:52;;;;;;;143.97;70.90;;;;;;;;;;5081571;28;20476;-89
2022/03/25 08:07:20;;;;;;;138.73;68.00;;;;;;;;;;5085430;28;20438;-88
2022/03/25 08:09:46;;;;;;;138.00;69.23;;;;;;;;;;5084445;28;20437;-90
2022/03/25 08:12:13;;;;;;;150.50;71.17;;;;;;;;;;5063025;28;20493;-90
2022/03/25 08:14:39;;;;;;;136.67;68.00;;;;;;;;;;5063873;28;20442;-90
2022/03/25 08:17:08;;;;;;;141.60;70.70;;;;;;;;;;5065914;28;20485;-88
2022/03/25 08:19:34;;;;;;;146.50;73.20;;;;;;;;;;5064414;28;20443;-88
2022/03/25 08:22:02;;;;;;;141.27;70.50;;;;;;;;;;5065784;28;20446;-91
2022/03/25 08:30:08;;;;;;;140.93;70.80;;;;;;;;;;4983081;28;20502;-89
2022/03/25 08:32:34;;;;;;;132.23;69.43;;;;;;;;;;5044083;28;20494;-89
2022/03/25 08:35:03;;;;;;;137.90;70.40;;;;;;;;;;5065359;28;20442;-91
2022/03/25 08:37:30;;;;;;;139.60;70.67;;;;;;;;;;5065122;28;20450;-89
2022/03/25 08:39:57;;;;;;;150.63;73.23;;;;;;;;;;5065618;28;20477;-89
2022/03/25 08:42:23;;;;;;;139.63;68.93;;;;;;;;;;5066125;28;20473;-90
2022/03/25 08:44:50;;;;;;;136.70;71.60;;;;;;;;;;5065353;28;20504;-90
2022/03/25 08:47:16;;;;;;;136.73;70.77;;;;;;;;;;5064313;28;20520;-91
2022/03/25 08:49:43;;;;;;;140.60;72.00;;;;;;;;;;5064122;28;20447;-89
2022/03/25 08:52:10;;;;;;;139.87;73.40;;;;;;;;;;5063848;28;20543;-88
2022/03/25 08:54:38;;;;;;;133.77;71.37;;;;;;;;;;5064705;28;20470;-88
2022/03/25 08:57:04;;;;;;;134.63;67.90;;;;;;;;;;5064195;28;20471;-89
2022/03/25 08:59:31;;;;;;;139.33;69.43;;;;;;;;;;5065916;28;20446;-89
2022/03/25 09:01:57;;;;;;;131.70;70.10;;;;;;;;;;5065394;28;20520;-89
2022/03/25 09:04:24;;;;;;;140.13;69.20;;;;;;;;;;5065681;28;20446;-91
2022/03/25 09:06:50;;;;;;;137.17;74.00;;;;;;;;;;5065043;28;20446;-89
2022/03/25 09:09:17;;;;;;;136.33;71.80;;;;;;;;;;5064919;28;20443;-89
2022/03/25 09:11:44;;;;;;;129.27;67.80;;;;;;;;;;5062942;28;20446;-91
2022/03/25 09:14:11;;;;;;;133.07;69.77;;;;;;;;;;5056586;28;20450;-90
2022/03/25 09:16:38;;;;;;;136.43;70.00;;;;;;;;;;5064927;28;20501;-92
2022/03/25 09:19:04;;;;;;;145.60;70.63;;;;;;;;;;5064372;28;20449;-92
2022/03/25 09:21:31;;;;;;;138.13;69.63;;;;;;;;;;5062039;28;20458;-92
2022/03/25 09:23:57;;;;;;;146.70;72.20;;;;;;;;;;5063588;28;20438;-93
2022/03/25 09:26:25;;;;;;;135.00;70.50;;;;;;;;;;5064538;28;20450;-90
2022/03/25 09:28:53;;;;;;;134.37;71.40;;;;;;;;;;5063848;28;20482;-95
2022/03/25 09:31:19;;;;;;;141.37;71.27;;;;;;;;;;5065111;28;20458;-91
2022/03/25 09:33:46;;;;;;;137.87;72.20;;;;;;;;;;5052810;28;20488;-95
2022/03/25 09:36:14;;;;;;;129.17;68.43;;;;;;;;;;5065277;28;20480;-94
2022/03/25 09:38:40;;;;;;;135.03;71.67;;;;;;;;;;5068810;28;20445;-94
2022/03/25 09:41:08;;;;;;;135.40;71.23;;;;;;;;;;5072168;28;20455;-94
2022/03/25 09:43:37;;;;;;;135.60;71.77;;;;;;;;;;5066324;28;20467;-96
2022/03/25 09:46:05;;;;;;;137.80;69.13;;;;;;;;;;5084503;28;20450;-94
2022/03/25 09:48:32;;;;;;;142.10;73.37;;;;;;;;;;5067079;28;20454;-94
2022/03/25 09:50:58;;;;;;;134.17;70.27;;;;;;;;;;5085023;28;20468;-93
2022/03/25 09:53:28;;;;;;;136.67;71.47;;;;;;;;;;5083561;28;20489;-94
2022/03/25 09:55:54;;;;;;;146.27;74.60;;;;;;;;;;5073696;28;20493;-94
2022/03/25 09:58:23;;;;;;;137.07;72.30;;;;;;;;;;5062812;28;20543;-96
2022/03/25 10:00:50;;;;;;;137.83;72.20;;;;;;;;;;5083622;28;20452;-91
2022/03/25 10:03:24;;;;;;;138.50;70.97;;;;;;;;;;5082767;28;20533;-91
2022/03/25 10:05:55;;;;;;;136.23;72.90;;;;;;;;;;5063929;28;20489;-94
2022/03/25 10:08:28;;;;;;;135.07;68.70;;;;;;;;;;5064010;28;20451;-93
2022/03/25 10:10:55;;;;;;;135.00;68.47;;;;;;;;;;5062123;28;20445;-90
2022/03/25 10:13:21;;;;;;;133.37;69.20;;;;;;;;;;5056983;28;20547;-93
2022/03/25 10:15:48;;;;;;;138.43;69.63;;;;;;;;;;5048457;28;20497;-92
2022/03/25 10:18:18;;;;;;;133.90;68.40;;;;;;;;;;5044707;28;20451;-93
2022/03/25 10:20:46;;;;;;;126.47;64.07;;;;;;;;;;5084555;28;21058;-95
2022/03/25 10:23:13;;;;;;;131.80;66.30;;;;;;;;;;5084654;28;20619;-91
2022/03/25 10:25:44;;;;;;;139.90;70.57;;;;;;;;;;5076129;28;20445;-94
2022/03/25 10:28:21;;;;;;;128.90;66.47;;;;;;;;;;5062957;28;20446;-94
2022/03/25 10:30:50;;;;;;;136.60;71.10;;;;;;;;;;5071694;28;20474;-95
2022/03/25 10:33:21;;;;;;;133.83;68.10;;;;;;;;;;5044920;28;20520;-95
2022/03/25 10:35:57;;;;;;;129.93;66.33;;;;;;;;;;5063568;28;20454;-96
2022/03/25 10:38:24;;;;;;;125.40;64.70;;;;;;;;;;5064404;28;20447;-94
2022/03/25 10:40:52;;;;;;;124.03;64.37;;;;;;;;;;5064221;28;20506;-96
2022/03/25 10:43:18;;;;;;;139.80;69.70;;;;;;;;;;5044443;28;20478;-93
2022/03/25 10:45:45;;;;;;;141.53;66.97;;;;;;;;;;5062295;28;20980;-92
2022/03/25 10:48:12;;;;;;;132.53;67.77;;;;;;;;;;5063046;28;20504;-91
2022/03/25 10:50:55;;;;;;;129.13;68.30;;;;;;;;;;5062397;28;21151;-95
2022/03/25 10:53:23;;;;;;;134.70;67.80;;;;;;;;;;5059450;28;20491;-92
2022/03/25 10:55:53;;;;;;;128.10;67.67;;;;;;;;;;5063709;28;20456;-92
2022/03/25 10:58:19;;;;;;;128.60;65.23;;;;;;;;;;5062360;28;20479;-91
2022/03/25 11:00:46;;;;;;;132.73;68.80;;;;;;;;;;5067827;28;20520;-90
2022/03/25 11:03:15;;;;;;;132.97;67.03;;;;;;;;;;5061775;28;20454;-91
2022/03/25 11:05:41;;;;;;;127.77;64.40;;;;;;;;;;5063802;28;20472;-92
2022/03/25 11:08:08;;;;;;;126.37;65.40;;;;;;;;;;5063801;28;20478;-92
2022/03/25 11:10:37;;;;;;;127.70;66.07;;;;;;;;;;5061471;28;20947;-89
2022/03/25 11:13:05;;;;;;;132.77;67.70;;;;;;;;;;5061988;28;20555;-93
2022/03/25 11:15:34;;;;;;;130.03;67.83;;;;;;;;;;5063635;28;20505;-91
2022/03/25 11:18:01;;;;;;;136.67;66.60;;;;;;;;;;5062425;28;20497;-93
2022/03/25 11:20:29;;;;;;;130.10;65.63;;;;;;;;;;5064437;28;20511;-93
2022/03/25 11:23:03;;;;;;;127.80;65.27;;;;;;;;;;5050168;28;20987;-92
2022/03/25 11:25:30;;;;;;;130.30;65.30;;;;;;;;;;5051232;28;20952;-92
2022/03/25 11:28:00;;;;;;;131.20;65.73;;;;;;;;;;5052674;28;20471;-93
2022/03/25 11:30:31;;;;;;;137.90;69.23;;;;;;;;;;5054859;28;20440;-94
2022/03/25 11:33:04;;;;;;;129.57;64.57;;;;;;;;;;5061122;28;20498;-91
2022/03/25 11:35:32;;;;;;;126.53;64.00;;;;;;;;;;5062971;28;20455;-89
2022/03/25 11:38:19;;;;;;;123.43;61.63;;;;;;;;;;5063652;28;20532;-93
2022/03/25 11:40:46;;;;;;;129.07;64.73;;;;;;;;;;5061062;28;20447;-91
2022/03/25 11:43:25;;;;;;;131.17;67.97;;;;;;;;;;5061403;28;20462;-95
2022/03/25 11:46:06;;;;;;;128.47;64.33;;;;;;;;;;5061598;28;20465;-94
2022/03/25 11:48:42;;;;;;;127.07;64.27;;;;;;;;;;5062692;28;20450;-91
2022/03/25 11:51:33;;;;;;;131.60;65.13;;;;;;;;;;5063652;28;20444;-95
2022/03/25 11:53:59;;;;;;;137.70;69.97;;;;;;;;;;5046991;28;20491;-93
2022/03/25 11:56:26;;;;;;;131.07;66.53;;;;;;;;;;5053721;28;21313;-93
2022/03/25 11:59:03;;;;;;;132.17;68.60;;;;;;;;;;5057775;28;20478;-95
2022/03/25 12:01:31;;;;;;;130.93;64.80;;;;;;;;;;5042823;28;21023;-93
2022/03/25 12:04:00;;;;;;;128.27;66.30;;;;;;;;;;5042777;28;20480;-94
2022/03/25 12:06:27;;;;;;;127.80;66.80;;;;;;;;;;5082903;28;20440;-92
2022/03/25 12:08:58;;;;;;;130.40;67.00;;;;;;;;;;5082767;28;20472;-93
2022/03/25 12:11:51;;;;;;;126.00;63.50;;;;;;;;;;5069528;28;20439;-94
2022/03/25 12:14:20;;;;;;;132.30;66.20;;;;;;;;;;5029655;28;20495;-94
2022/03/25 12:17:02;;;;;;;126.73;64.00;;;;;;;;;;5053873;28;20470;-92
2022/03/25 12:19:51;;;;;;;127.07;64.77;;;;;;;;;;5049742;28;20448;-93
2022/03/25 12:22:28;;;;;;;132.43;69.30;;;;;;;;;;5079293;28;20482;-94
2022/03/25 12:24:56;;;;;;;132.27;65.30;;;;;;;;;;5081554;28;20943;-91
2022/03/25 12:27:23;;;;;;;128.00;65.77;;;;;;;;;;5062531;28;20451;-93
2022/03/25 12:29:52;;;;;;;129.87;64.43;;;;;;;;;;5067244;28;20450;-93
2022/03/25 12:32:19;;;;;;;128.97;65.50;;;;;;;;;;5082664;28;20544;-95
2022/03/25 12:34:53;;;;;;;126.00;62.40;;;;;;;;;;5079536;28;20501;-93
2022/03/25 12:37:23;;;;;;;126.97;65.27;;;;;;;;;;5063076;28;20448;-94
2022/03/25 12:39:49;;;;;;;126.07;64.43;;;;;;;;;;5061078;28;20470;-96
2022/03/25 12:42:16;;;;;;;129.63;66.03;;;;;;;;;;5064120;28;20448;-95
2022/03/25 12:44:42;;;;;;;126.67;64.80;;;;;;;;;;5065651;28;20445;-93
2022/03/25 12:47:15;;;;;;;126.03;64.80;;;;;;;;;;5068477;28;20455;-95
2022/03/25 12:49:41;;;;;;;125.17;64.50;;;;;;;;;;5069058;28;20463;-93
2022/03/25 12:52:08;;;;;;;128.07;65.70;;;;;;;;;;5086217;28;20471;-94
2022/03/25 12:54:35;;;;;;;126.73;63.80;;;;;;;;;;5086466;28;20491;-96
2022/03/25 12:57:02;;;;;;;134.83;63.17;;;;;;;;;;5068476;28;20987;-92
2022/03/25 12:59:29;;;;;;;132.83;67.47;;;;;;;;;;5066887;28;20451;-95
2022/03/25 13:01:56;;;;;;;126.30;64.47;;;;;;;;;;5066821;28;20572;-93
2022/03/25 13:04:29;;;;;;;125.70;64.40;;;;;;;;;;5066412;28;20470;-92
2022/03/25 13:06:57;;;;;;;128.73;65.73;;;;;;;;;;5050450;28;20458;-91
2022/03/25 13:09:24;;;;;;;142.50;67.70;;;;;;;;;;5063861;28;21002;-94
2022/03/25 13:11:54;;;;;;;126.87;63.67;;;;;;;;;;5060915;28;20520;-92
2022/03/25 13:14:21;;;;;;;131.90;65.50;;;;;;;;;;5063365;28;20505;-92
2022/03/25 13:16:48;;;;;;;125.53;66.00;;;;;;;;;;5053453;28;20451;-93
2022/03/25 13:19:15;;;;;;;130.10;64.37;;;;;;;;;;5045728;28;20539;-91
2022/03/25 13:21:46;;;;;;;132.00;65.73;;;;;;;;;;5063881;28;20450;-92
2022/03/25 13:24:12;;;;;;;135.80;65.27;;;;;;;;;;5065016;28;20472;-93
2022/03/25 13:26:39;;;;;;;147.73;66.70;;;;;;;;;;5065542;28;20445;-91
2022/03/25 13:29:07;;;;;;;133.30;64.83;;;;;;;;;;5052174;28;20472;-93
2022/03/25 13:31:34;;;;;;;148.23;65.93;;;;;;;;;;5078023;28;20489;-94
2022/03/25 13:34:01;;;;;;;128.23;64.77;;;;;;;;;;5085795;28;20516;-93
2022/03/25 13:36:28;;;;;;;148.53;65.73;;;;;;;;;;5084868;28;20442;-94
2022/03/25 13:38:56;;;;;;;136.40;64.97;;;;;;;;;;5085519;28;20527;-92
2022/03/25 13:41:23;;;;;;;129.93;65.80;;;;;;;;;;5071593;28;20500;-92
2022/03/25 13:43:51;;;;;;;122.90;62.43;;;;;;;;;;5066418;28;20453;-93
2022/03/25 13:46:22;;;;;;;129.53;66.00;;;;;;;;;;5064178;28;20456;-94
2022/03/25 13:48:50;;;;;;;126.47;63.40;;;;;;;;;;5062969;28;21036;-92
2022/03/25 13:51:19;;;;;;;127.30;65.30;;;;;;;;;;5065793;28;20470;-94
2022/03/25 13:53:45;;;;;;;126.40;64.37;;;;;;;;;;5065471;28;20490;-92
2022/03/25 13:56:14;;;;;;;133.97;66.73;;;;;;;;;;5064350;28;20446;-96
2022/03/25 13:58:45;;;;;;;133.70;62.93;;;;;;;;;;5065885;28;21031;-93
2022/03/25 14:01:13;;;;;;;125.27;62.87;;;;;;;;;;5066468;28;20533;-96
2022/03/25 14:03:40;;;;;;;125.87;63.87;;;;;;;;;;5065863;28;20448;-94
2022/03/25 14:06:10;;;;;;;125.17;62.27;;;;;;;;;;5064126;28;20565;-94
2022/03/25 14:08:37;;;;;;;142.50;64.43;;;;;;;;;;5061848;28;20513;-93
2022/03/25 14:11:04;;;;;;;124.90;63.80;;;;;;;;;;5072536;28;20492;-94
2022/03/25 14:13:35;;;;;;;134.87;65.83;;;;;;;;;;5061404;28;20471;-94